Time;durP1;ratioP1;P1;durP2;ratioP2;P2;SDS_P1;SDS_P2;PMS_P1;PMS_P2;Temp;Humidity;BMP_temperature;BMP_pressure;BME280_temperature;BME280_humidity;BME280_pressure;Samples;Min_cycle;Max_cycle;Signal;HPM_P1;HPM_P2
2022/10/09 04:31:22;;;;;;;;;3.00;3.00;;;;;13.46;52.89;101793.44;5050113;27;45494;-75
2022/10/09 04:33:47;;;;;;;;;2.75;2.75;;;;;13.37;52.65;101774.09;5055754;28;45363;-74
2022/10/09 04:36:12;;;;;;;;;2.00;2.00;;;;;13.37;52.99;101780.34;5055719;28;45902;-75
2022/10/09 04:38:38;;;;;;;;;2.00;2.00;;;;;13.38;52.81;101776.72;5055560;28;45324;-75
2022/10/09 04:41:05;;;;;;;;;3.00;3.00;;;;;13.46;52.84;101785.38;5055223;28;45360;-73
2022/10/09 04:43:31;;;;;;;;;4.50;2.25;;;;;13.46;53.11;101792.56;5049945;28;46222;-75
2022/10/09 04:45:57;;;;;;;;;4.00;4.00;;;;;13.34;53.12;101776.94;5055983;28;45329;-74
2022/10/09 04:48:23;;;;;;;;;3.50;3.00;;;;;13.34;53.06;101769.72;5055757;28;45174;-76
2022/10/09 04:50:49;;;;;;;;;4.00;4.00;;;;;13.42;53.46;101789.13;5056266;28;45344;-75
2022/10/09 04:53:15;;;;;;;;;5.75;5.75;;;;;13.29;54.18;101792.38;5056161;28;45480;-75
2022/10/09 04:55:43;;;;;;;;;5.75;5.75;;;;;13.14;54.84;101788.50;5056220;28;46351;-74
2022/10/09 04:58:11;;;;;;;;;6.00;6.00;;;;;13.03;55.98;101778.09;5056013;28;45342;-74
2022/10/09 05:00:41;;;;;;;;;12.75;8.75;;;;;12.95;56.63;101785.59;5055619;28;45220;-74
2022/10/09 05:03:07;;;;;;;;;11.00;10.00;;;;;12.82;57.10;101770.88;5055017;28;46342;-75
2022/10/09 05:05:32;;;;;;;;;5.25;5.25;;;;;12.79;57.31;101781.75;5055223;28;46168;-74
2022/10/09 05:07:57;;;;;;;;;7.00;7.00;;;;;12.78;57.62;101777.31;5054951;28;45470;-75
2022/10/09 05:10:23;;;;;;;;;6.25;5.00;;;;;12.65;57.87;101757.22;5055285;28;45539;-74
2022/10/09 05:12:48;;;;;;;;;8.25;8.25;;;;;12.70;58.10;101766.84;5037057;28;46267;-74
2022/10/09 05:15:13;;;;;;;;;13.00;8.50;;;;;12.59;58.39;101760.16;5055056;28;45419;-74
2022/10/09 05:17:39;;;;;;;;;10.00;8.00;;;;;12.57;58.50;101757.50;5024140;28;45886;-74
2022/10/09 05:20:04;;;;;;;;;9.25;9.00;;;;;12.39;59.12;101755.50;5055585;28;45355;-74
2022/10/09 05:22:30;;;;;;;;;8.50;8.50;;;;;12.39;58.91;101744.75;5055053;28;45498;-75
2022/10/09 05:24:55;;;;;;;;;12.25;9.50;;;;;12.40;59.67;101754.56;5054667;28;45922;-75
2022/10/09 05:27:21;;;;;;;;;13.25;11.25;;;;;12.32;59.48;101759.34;5055027;28;45159;-75
2022/10/09 05:29:47;;;;;;;;;13.75;11.00;;;;;12.35;59.50;101761.91;5055001;28;45411;-74
2022/10/09 05:32:13;;;;;;;;;10.50;8.00;;;;;12.36;59.53;101751.09;5031673;28;46364;-75
2022/10/09 05:34:39;;;;;;;;;9.75;9.75;;;;;12.20;59.27;101723.03;5052210;28;45568;-75
2022/10/09 05:37:04;;;;;;;;;12.75;11.50;;;;;12.28;59.90;101755.00;5054820;28;45372;-74
2022/10/09 05:39:31;;;;;;;;;12.25;10.25;;;;;12.21;60.06;101749.00;5055014;28;45394;-75
2022/10/09 05:41:56;;;;;;;;;13.75;12.50;;;;;12.19;60.03;101758.03;5053007;28;45916;-75
2022/10/09 05:44:22;;;;;;;;;11.25;11.00;;;;;12.16;60.10;101755.47;5054549;28;45312;-74
2022/10/09 05:46:48;;;;;;;;;15.50;13.25;;;;;12.13;60.81;101754.66;5054432;28;45381;-74
2022/10/09 05:49:13;;;;;;;;;13.00;12.00;;;;;11.92;60.68;101725.84;5054593;28;45239;-74
2022/10/09 05:51:41;;;;;;;;;15.00;13.00;;;;;12.01;60.52;101752.38;5053982;28;45434;-75
2022/10/09 05:54:11;;;;;;;;;10.75;10.75;;;;;11.89;60.63;101731.34;5054622;28;45337;-74
2022/10/09 05:56:37;;;;;;;;;12.50;12.50;;;;;11.98;60.55;101747.16;5054416;28;45437;-71
2022/10/09 05:59:18;;;;;;;;;14.00;11.00;;;;;12.08;60.50;101751.22;5054777;28;45285;-75
2022/10/09 06:01:47;;;;;;;;;12.00;11.00;;;;;12.12;60.60;101750.19;5054649;28;45215;-77
2022/10/09 06:04:18;;;;;;;;;11.25;10.25;;;;;12.15;60.09;101742.97;5054102;28;45436;-73
2022/10/09 06:06:43;;;;;;;;;13.50;13.50;;;;;12.19;60.23;101745.47;5054525;28;45524;-78
2022/10/09 06:09:10;;;;;;;;;14.25;11.50;;;;;12.22;59.88;101747.19;5054572;28;45496;-74
2022/10/09 06:11:38;;;;;;;;;11.00;11.00;;;;;12.18;60.24;101738.34;5055033;28;45260;-75
2022/10/09 06:14:06;;;;;;;;;15.00;13.00;;;;;12.16;60.14;101742.91;5054236;28;45435;-75
2022/10/09 06:16:35;;;;;;;;;13.50;12.50;;;;;12.06;60.38;101747.75;5054269;28;45360;-75
2022/10/09 06:19:02;;;;;;;;;12.00;12.00;;;;;12.06;60.55;101744.19;5054069;28;45380;-76
2022/10/09 06:21:28;;;;;;;;;14.75;13.00;;;;;11.91;60.68;101726.78;5054443;28;45383;-74
2022/10/09 06:23:55;;;;;;;;;13.50;10.25;;;;;11.97;61.13;101750.75;5054019;28;45504;-73
2022/10/09 06:26:22;;;;;;;;;7.75;7.75;;;;;11.88;60.52;101720.66;5054737;28;45358;-74
2022/10/09 06:28:48;;;;;;;;;10.50;10.25;;;;;12.02;60.29;101732.66;5054669;28;45944;-74
2022/10/09 06:31:15;;;;;;;;;10.25;9.25;;;;;12.04;60.64;101736.16;5054319;28;45219;-74
2022/10/09 06:33:43;;;;;;;;;7.50;7.50;;;;;12.06;60.61;101737.00;5053746;28;45494;-74
2022/10/09 06:36:13;;;;;;;;;10.00;8.25;;;;;12.11;60.16;101735.00;5051530;28;45338;-75
2022/10/09 06:38:40;;;;;;;;;12.25;12.25;;;;;11.97;60.20;101714.94;5054120;28;45241;-73
2022/10/09 06:41:15;;;;;;;;;12.00;12.00;;;;;11.98;60.60;101717.59;5054434;28;45415;-73
2022/10/09 06:43:41;;;;;;;;;13.25;10.75;;;;;12.10;60.16;101735.06;5054135;28;45516;-73
2022/10/09 06:46:11;;;;;;;;;13.50;10.00;;;;;12.07;59.91;101722.63;5052810;28;45392;-74
2022/10/09 06:48:38;;;;;;;;;10.25;10.25;;;;;12.21;60.06;101740.03;5053855;28;45223;-75
2022/10/09 06:51:06;;;;;;;;;7.00;7.00;;;;;12.23;60.07;101740.88;5053715;28;45325;-76
2022/10/09 06:53:36;;;;;;;;;13.75;11.25;;;;;12.23;60.04;101739.06;5053801;28;45406;-74
2022/10/09 06:56:04;;;;;;;;;13.25;10.75;;;;;12.11;60.09;101729.63;5057104;28;45574;-74
2022/10/09 06:58:29;;;;;;;;;10.50;10.50;;;;;12.13;60.01;101729.56;5057586;28;45284;-75
2022/10/09 07:01:31;;;;;;;;;9.75;9.75;;;;;12.18;59.79;101735.66;5051900;28;46349;-75
2022/10/09 07:03:59;;;;;;;;;11.50;11.50;;;;;12.11;59.78;101720.69;5047579;28;46122;-76
2022/10/09 07:06:27;;;;;;;;;11.75;11.75;;;;;12.09;59.73;101738.66;5039190;28;45488;-72
2022/10/09 07:08:57;;;;;;;;;13.50;12.00;;;;;12.10;60.10;101735.94;5057403;28;45342;-70
2022/10/09 07:11:29;;;;;;;;;11.50;11.00;;;;;12.06;60.00;101722.69;5057347;28;45557;-77
2022/10/09 07:14:00;;;;;;;;;13.00;11.00;;;;;12.03;60.07;101699.47;5056119;28;47256;-78
2022/10/09 07:16:32;;;;;;;;;10.50;10.50;;;;;12.16;59.53;101697.22;5057394;28;45375;-76
2022/10/09 07:19:00;;;;;;;;;11.75;11.75;;;;;12.31;59.40;101717.28;5056839;28;45389;-74
2022/10/09 07:21:26;;;;;;;;;12.50;8.50;;;;;12.36;59.17;101709.88;5058610;28;45406;-75
2022/10/09 07:23:52;;;;;;;;;6.75;6.75;;;;;12.43;58.68;101723.03;5056368;28;46120;-75
2022/10/09 07:26:24;;;;;;;;;7.50;6.50;;;;;12.48;57.91;101712.13;5057412;28;45326;-77
2022/10/09 07:28:50;;;;;;;;;5.25;5.25;;;;;12.47;57.35;101696.91;5057581;28;45248;-78
2022/10/09 07:31:18;;;;;;;;;10.50;8.25;;;;;12.60;56.98;101713.44;5060628;28;46220;-76
2022/10/09 07:33:46;;;;;;;;;5.00;5.00;;;;;12.71;56.91;101716.59;5060336;28;45504;-75
2022/10/09 07:36:12;;;;;;;;;8.50;5.75;;;;;12.79;55.74;101717.19;5056635;28;45253;-77
2022/10/09 07:38:37;;;;;;;;;5.00;4.00;;;;;12.82;55.74;101707.19;5058408;28;45553;-75
2022/10/09 07:41:08;;;;;;;;;3.50;3.50;;;;;12.87;55.86;101701.59;5038420;28;46422;-75
2022/10/09 07:43:35;;;;;;;;;5.00;3.75;;;;;13.00;55.69;101705.56;5056255;28;45691;-77
2022/10/09 07:46:01;;;;;;;;;3.50;3.25;;;;;13.00;54.73;101696.63;5056938;28;45373;-74
2022/10/09 07:48:27;;;;;;;;;5.75;4.00;;;;;13.07;55.28;101699.00;5056541;28;45600;-77
2022/10/09 07:50:53;;;;;;;;;5.00;5.00;;;;;13.06;55.50;101694.53;5056441;28;45223;-78
2022/10/09 07:53:19;;;;;;;;;4.00;4.00;;;;;13.24;55.03;101706.41;5037901;28;47353;-76
2022/10/09 07:55:45;;;;;;;;;3.50;3.25;;;;;13.29;55.16;101704.38;5056128;28;45323;-70
2022/10/09 07:58:12;;;;;;;;;7.25;6.25;;;;;13.35;54.68;101701.47;5069609;28;45487;-74
2022/10/09 08:00:38;;;;;;;;;5.00;4.00;;;;;13.38;54.37;101701.31;5056624;28;45355;-77
2022/10/09 08:03:03;;;;;;;;;7.25;6.50;;;;;13.43;54.67;101701.13;5054963;28;47134;-75
2022/10/09 08:05:28;;;;;;;;;9.00;5.00;;;;;13.45;54.67;101689.31;5049401;28;45471;-73
2022/10/09 08:07:54;;;;;;;;;6.00;4.00;;;;;13.37;54.22;101664.53;5039737;28;45549;-77
2022/10/09 08:10:19;;;;;;;;;5.75;5.50;;;;;13.53;53.93;101692.56;5057832;28;45390;-77
2022/10/09 08:12:44;;;;;;;;;6.75;6.00;;;;;13.60;54.04;101687.81;5057125;28;45997;-75
2022/10/09 08:15:10;;;;;;;;;7.00;5.75;;;;;13.37;54.26;101645.69;5056163;28;45505;-79
2022/10/09 08:17:35;;;;;;;;;5.50;5.50;;;;;13.68;53.77;101690.16;5057107;28;45521;-81
2022/10/09 08:20:01;;;;;;;;;6.00;6.00;;;;;13.68;53.79;101677.56;5037282;28;46123;-79
2022/10/09 08:22:26;;;;;;;;;6.00;6.00;;;;;13.72;53.62;101673.78;5055874;28;46190;-80
2022/10/09 08:24:51;;;;;;;;;6.50;6.00;;;;;13.81;53.74;101678.78;5057345;28;45358;-76
2022/10/09 08:27:18;;;;;;;;;3.75;3.00;;;;;13.83;53.49;101676.00;5061008;28;45320;-77
2022/10/09 08:29:43;;;;;;;;;5.00;5.00;;;;;13.74;53.57;101644.06;5044041;28;45244;-78
2022/10/09 08:32:08;;;;;;;;;8.75;5.75;;;;;13.87;53.78;101653.34;5060914;28;45505;-79
2022/10/09 08:34:34;;;;;;;;;6.75;5.50;;;;;13.88;53.71;101663.19;5057601;28;45334;-79
2022/10/09 08:36:59;;;;;;;;;7.75;7.75;;;;;13.99;53.91;101666.28;5057810;28;45226;-81
2022/10/09 08:39:28;;;;;;;;;5.00;5.00;;;;;13.94;54.04;101646.75;5061283;28;45267;-78
2022/10/09 08:41:55;;;;;;;;;4.50;4.50;;;;;14.09;53.04;101664.94;5059313;28;45656;-78
2022/10/09 08:44:37;;;;;;;;;6.50;6.50;;;;;14.13;53.54;101661.13;5057879;28;45413;-77
2022/10/09 08:47:10;;;;;;;;;7.00;7.00;;;;;14.19;53.37;101660.00;5055384;28;45438;-77
2022/10/09 08:49:55;;;;;;;;;6.00;6.00;;;;;14.19;53.53;101649.22;5055574;28;45456;-71
2022/10/09 08:52:31;;;;;;;;;9.00;8.25;;;;;14.27;53.25;101653.28;5055602;28;45353;-74
2022/10/09 08:55:02;;;;;;;;;7.50;6.00;;;;;14.25;53.43;101640.81;5055174;28;45389;-74
2022/10/09 08:57:32;;;;;;;;;6.00;6.00;;;;;14.39;53.27;101649.16;5055459;28;45185;-75
2022/10/09 08:59:57;;;;;;;;;7.75;7.25;;;;;14.46;52.94;101649.78;5050707;28;45533;-71
2022/10/09 09:02:46;;;;;;;;;9.00;9.00;;;;;14.47;53.11;101646.97;5053190;28;46037;-72
2022/10/09 09:05:26;;;;;;;;;10.50;9.00;;;;;14.55;53.30;101649.31;5048924;28;45591;-74
2022/10/09 09:08:03;;;;;;;;;13.50;10.25;;;;;14.51;53.18;101620.72;5041727;28;45336;-74
2022/10/09 09:10:39;;;;;;;;;6.00;5.00;;;;;14.65;52.82;101631.72;5053917;28;45498;-73
2022/10/09 09:13:52;;;;;;;;;10.75;5.00;;;;;14.70;53.24;101632.41;5053548;28;46672;-78
2022/10/09 09:16:21;;;;;;;;;8.75;6.25;;;;;14.75;53.13;101631.22;5002174;28;45338;-74
2022/10/09 09:18:51;;;;;;;;;7.75;7.25;;;;;14.81;52.55;101626.44;5012224;28;45623;-73
2022/10/09 09:21:28;;;;;;;;;5.00;5.00;;;;;14.83;52.81;101614.63;5034138;28;45317;-69
2022/10/09 09:23:54;;;;;;;;;6.75;6.25;;;;;14.90;52.44;101615.19;5054865;28;45496;-72
2022/10/09 09:26:20;;;;;;;;;4.50;4.50;;;;;14.87;52.69;101600.03;5054448;28;45444;-70
2022/10/09 09:28:51;;;;;;;;;4.75;4.75;;;;;15.00;52.79;101613.78;5054868;28;45485;-72
2022/10/09 09:31:27;;;;;;;;;5.00;5.00;;;;;14.99;53.11;101594.00;5054110;28;46102;-71
2022/10/09 09:34:09;;;;;;;;;9.00;6.00;;;;;15.10;52.82;101609.66;5043511;28;46146;-73
2022/10/09 09:36:57;;;;;;;;;4.75;4.75;;;;;15.16;52.44;101601.25;5054459;28;45506;-71
2022/10/09 09:39:26;;;;;;;;;6.25;5.75;;;;;15.15;52.30;101589.56;5055587;28;45389;-75
2022/10/09 09:41:54;;;;;;;;;7.75;6.50;;;;;15.20;52.63;101581.25;5054018;28;45427;-77
2022/10/09 09:44:19;;;;;;;;;8.75;8.50;;;;;15.17;52.66;101570.59;5055224;28;46003;-75
2022/10/09 09:46:48;;;;;;;;;5.50;5.50;;;;;15.26;52.00;101580.03;5055024;28;45334;-75
2022/10/09 09:49:22;;;;;;;;;7.00;6.75;;;;;15.28;52.45;101578.13;5055484;28;45275;-75
2022/10/09 09:51:49;;;;;;;;;5.75;5.50;;;;;15.33;52.40;101582.34;5042053;28;46114;-75
2022/10/09 09:54:22;;;;;;;;;5.00;5.00;;;;;15.38;52.31;101582.13;5054377;28;45410;-75
2022/10/09 09:56:51;;;;;;;;;8.75;6.75;;;;;15.36;52.12;101571.38;5054583;28;45326;-75
2022/10/09 09:59:31;;;;;;;;;6.00;6.00;;;;;15.39;52.34;101571.22;5054552;28;45279;-75
2022/10/09 10:02:17;;;;;;;;;7.00;5.25;;;;;15.44;51.98;101562.88;5053068;28;47059;-75
2022/10/09 10:04:52;;;;;;;;;4.50;4.50;;;;;15.48;51.69;101567.16;5054895;28;45327;-75
2022/10/09 10:07:38;;;;;;;;;4.00;4.00;;;;;15.53;52.51;101556.97;5053267;28;45556;-74
2022/10/09 10:10:16;;;;;;;;;4.00;4.00;;;;;15.59;52.47;101555.78;5054291;28;45472;-76
2022/10/09 10:12:50;;;;;;;;;8.50;6.00;;;;;15.65;52.09;101553.63;5054385;28;47053;-76
2022/10/09 10:15:23;;;;;;;;;5.25;5.25;;;;;15.71;51.65;101552.44;5053918;28;46429;-75
2022/10/09 10:17:56;;;;;;;;;5.00;5.00;;;;;15.75;51.90;101544.06;5054045;28;45422;-76
2022/10/09 10:20:22;;;;;;;;;6.75;5.75;;;;;15.80;51.76;101536.59;5053914;28;45461;-76
2022/10/09 10:22:53;;;;;;;;;6.00;6.00;;;;;15.85;51.31;101539.91;5054072;28;45268;-75
2022/10/09 10:25:24;;;;;;;;;6.00;4.50;;;;;15.93;51.69;101534.06;5053800;28;45345;-74
2022/10/09 10:27:56;;;;;;;;;6.00;6.00;;;;;15.97;51.87;101519.44;5053884;28;45346;-75
2022/10/09 10:30:21;;;;;;;;;6.00;5.50;;;;;16.09;51.10;101534.09;5054987;28;45377;-75
2022/10/09 10:32:58;;;;;;;;;6.25;5.50;;;;;16.18;50.92;101523.63;5057191;28;45474;-75
2022/10/09 10:35:30;;;;;;;;;6.50;5.00;;;;;16.19;50.71;101509.13;5057214;28;46318;-76
2022/10/09 10:38:14;;;;;;;;;6.00;6.00;;;;;16.34;51.12;101520.03;5057548;28;45450;-75
2022/10/09 10:40:51;;;;;;;;;17.00;15.50;;;;;16.44;50.26;101508.59;5057513;28;45315;-76
2022/10/09 10:43:32;;;;;;;;;5.75;5.75;;;;;16.54;51.04;101507.09;5057277;28;45363;-75
2022/10/09 10:45:59;;;;;;;;;6.00;6.00;;;;;16.66;50.69;101499.25;5056024;28;46050;-75
2022/10/09 10:48:28;;;;;;;;;6.75;6.75;;;;;16.77;50.02;101496.75;5056875;28;45445;-74
2022/10/09 10:50:56;;;;;;;;;7.75;6.00;;;;;16.91;49.61;101492.28;5057339;28;45722;-76
2022/10/09 10:53:55;;;;;;;;;7.00;7.00;;;;;17.07;49.58;101494.94;5056457;28;45343;-76
2022/10/09 10:56:36;;;;;;;;;4.50;4.50;;;;;17.26;48.99;101473.88;5056423;28;48079;-76
2022/10/09 10:59:16;;;;;;;;;5.25;5.25;;;;;17.52;48.77;101476.78;5057871;28;45376;-76
2022/10/09 11:02:28;;;;;;;;;7.25;6.00;;;;;17.91;47.80;101468.84;5057226;28;45506;-75
2022/10/09 11:05:21;;;;;;;;;5.75;5.00;;;;;18.40;46.82;101462.88;5036460;28;45449;-76
2022/10/09 11:08:02;;;;;;;;;4.00;4.00;;;;;18.85;45.79;101451.66;5056682;28;45476;-77
2022/10/09 11:10:45;;;;;;;;;5.50;5.50;;;;;19.31;44.96;101455.72;5055531;28;46345;-77
2022/10/09 11:13:23;;;;;;;;;5.00;5.00;;;;;19.74;43.67;101453.50;5057058;28;45354;-78
2022/10/09 11:16:13;;;;;;;;;4.00;4.00;;;;;20.16;43.30;101439.44;5056625;28;45408;-76
2022/10/09 11:18:54;;;;;;;;;5.50;5.50;;;;;20.60;42.47;101436.09;5054865;28;46255;-75
2022/10/09 11:21:51;;;;;;;;;6.00;5.00;;;;;21.07;41.00;101421.50;5056961;28;45370;-76
2022/10/09 11:24:51;;;;;;;;;2.25;2.25;;;;;21.65;39.74;101430.50;5043867;28;45213;-77
2022/10/09 11:27:31;;;;;;;;;5.25;3.50;;;;;22.62;38.10;101416.88;5056662;28;45342;-75
2022/10/09 11:30:01;;;;;;;;;5.25;4.25;;;;;23.69;36.60;101404.75;5056571;28;45427;-75
2022/10/09 11:32:37;;;;;;;;;7.50;4.75;;;;;24.80;34.98;101411.69;5056265;28;45393;-75
2022/10/09 11:35:11;;;;;;;;;6.75;4.00;;;;;25.86;32.78;101402.31;5055218;28;45348;-77
2022/10/09 11:37:39;;;;;;;;;4.75;3.50;;;;;26.91;31.63;101395.16;5056527;28;45667;-76
2022/10/09 11:40:12;;;;;;;;;3.50;3.50;;;;;27.99;29.02;101383.53;5056049;28;46481;-76
2022/10/09 11:42:38;;;;;;;;;3.25;3.25;;;;;28.98;27.95;101372.47;5056495;28;45337;-76
2022/10/09 11:45:45;;;;;;;;;2.25;0.75;;;;;30.12;26.30;101377.63;5056522;28;45408;-78
2022/10/09 11:48:27;;;;;;;;;4.00;2.50;;;;;31.00;24.89;101376.09;5008725;28;45388;-76
2022/10/09 11:51:17;;;;;;;;;2.00;2.00;;;;;31.66;23.41;101371.56;5054792;28;46408;-78
2022/10/09 11:53:44;;;;;;;;;2.75;2.75;;;;;32.42;23.68;101360.97;5044618;28;45279;-76
2022/10/09 11:56:26;;;;;;;;;2.00;2.00;;;;;33.30;22.38;101360.50;5056416;28;45492;-75
2022/10/09 11:58:59;;;;;;;;;3.25;2.75;;;;;34.04;21.35;101360.66;5056329;28;45484;-75
2022/10/09 12:01:35;;;;;;;;;3.00;3.00;;;;;34.61;20.66;101348.19;5056030;28;45314;-76
2022/10/09 12:04:06;;;;;;;;;4.25;2.50;;;;;35.15;20.21;101347.97;5056351;28;45236;-76
2022/10/09 12:06:51;;;;;;;;;5.25;2.25;;;;;35.61;19.40;101353.47;5056169;28;45339;-77
2022/10/09 12:09:46;;;;;;;;;3.25;3.25;;;;;36.08;19.00;101341.03;5055980;28;45370;-77
2022/10/09 12:12:14;;;;;;;;;1.25;1.25;;;;;36.49;18.74;101345.34;5048872;28;45387;-75
2022/10/09 12:14:42;;;;;;;;;1.00;1.00;;;;;36.06;18.81;101332.06;5055926;28;45533;-76
2022/10/09 12:17:33;;;;;;;;;1.75;1.75;;;;;36.18;19.06;101324.66;5055997;28;45280;-75
2022/10/09 12:20:14;;;;;;;;;3.00;3.00;;;;;36.56;18.81;101329.38;5054356;28;45524;-76
2022/10/09 12:22:45;;;;;;;;;2.00;2.00;;;;;36.72;18.39;101315.72;5055722;28;46459;-76
2022/10/09 12:25:22;;;;;;;;;2.00;2.00;;;;;36.75;17.63;101306.84;5056004;28;45243;-77
2022/10/09 12:27:53;;;;;;;;;3.00;3.00;;;;;36.64;17.97;101298.34;5055959;28;45351;-76
2022/10/09 12:30:21;;;;;;;;;2.00;2.00;;;;;36.79;18.49;101301.69;5055488;28;45299;-78
2022/10/09 12:33:10;;;;;;;;;2.25;1.25;;;;;36.80;17.74;101300.59;5055133;28;45239;-76
2022/10/09 12:35:40;;;;;;;;;2.00;2.00;;;;;37.05;17.56;101292.19;5055708;28;45319;-77
2022/10/09 12:38:28;;;;;;;;;1.50;1.50;;;;;36.97;17.37;101284.94;5055579;28;45315;-76
2022/10/09 12:40:59;;;;;;;;;3.25;2.25;;;;;37.13;17.40;101275.09;5055524;28;45255;-76
2022/10/09 12:43:24;;;;;;;;;2.50;2.00;;;;;37.22;17.40;101284.06;5055258;28;45560;-76
2022/10/09 12:45:52;;;;;;;;;3.25;1.75;;;;;37.18;17.41;101274.41;5055652;28;45425;-76
2022/10/09 12:48:21;;;;;;;;;3.00;2.00;;;;;36.51;17.67;101264.94;5055494;28;45277;-76
2022/10/09 12:50:48;;;;;;;;;1.25;1.25;;;;;35.74;18.45;101266.09;5055286;28;45475;-74
2022/10/09 12:53:16;;;;;;;;;1.50;1.50;;;;;34.44;19.45;101241.94;5054303;28;45382;-77
2022/10/09 12:55:47;;;;;;;;;3.25;3.00;;;;;33.43;20.65;101269.69;5055412;28;45267;-76
2022/10/09 12:58:17;;;;;;;;;4.00;2.00;;;;;32.37;21.72;101250.56;5055564;28;45477;-75
2022/10/09 13:00:45;;;;;;;;;4.00;2.00;;;;;31.79;21.86;101251.66;5055430;28;45577;-75
2022/10/09 13:03:31;;;;;;;;;3.50;2.00;;;;;31.87;22.22;101240.44;5055025;28;45568;-76
2022/10/09 13:05:58;;;;;;;;;1.50;1.00;;;;;32.19;21.84;101239.09;5055267;28;45406;-76
2022/10/09 13:08:33;;;;;;;;;1.25;1.25;;;;;32.73;21.10;101239.34;5055461;28;45342;-75
2022/10/09 13:11:25;;;;;;;;;2.00;1.00;;;;;33.39;20.79;101212.81;5055149;28;45630;-77
2022/10/09 13:13:53;;;;;;;;;2.00;2.00;;;;;33.94;19.84;101230.28;5055470;28;45462;-76
2022/10/09 13:16:19;;;;;;;;;1.25;1.25;;;;;34.51;19.91;101237.22;5055460;28;45401;-76
2022/10/09 13:18:55;;;;;;;;;3.50;3.50;;;;;34.97;19.83;101219.59;5053447;28;45561;-76
2022/10/09 13:21:27;;;;;;;;;3.50;2.00;;;;;35.30;19.10;101222.31;5053828;28;45475;-76
2022/10/09 13:23:52;;;;;;;;;3.50;2.50;;;;;35.59;18.52;101186.31;5055140;28;45345;-77
2022/10/09 13:26:28;;;;;;;;;3.50;2.00;;;;;36.16;18.22;101200.31;5054936;28;45338;-77
2022/10/09 13:28:56;;;;;;;;;2.00;2.00;;;;;36.54;18.33;101195.50;5055346;28;45409;-79
2022/10/09 13:31:22;;;;;;;;;2.25;2.25;;;;;36.76;17.73;101199.59;5054684;28;45353;-77
2022/10/09 13:33:48;;;;;;;;;4.25;1.50;;;;;36.88;17.55;101185.72;5054353;28;45963;-76
2022/10/09 13:36:15;;;;;;;;;3.00;3.00;;;;;36.95;17.77;101177.25;5054938;28;45382;-76
2022/10/09 13:38:41;;;;;;;;;1.50;1.50;;;;;37.20;17.09;101177.16;5054969;28;45672;-76
2022/10/09 13:41:12;;;;;;;;;4.50;2.00;;;;;37.47;17.39;101179.38;5053427;28;47006;-76
2022/10/09 13:43:37;;;;;;;;;2.50;2.50;;;;;37.74;17.16;101188.28;5054624;28;45404;-76
2022/10/09 13:46:02;;;;;;;;;1.75;1.25;;;;;37.71;16.71;101183.16;5054628;28;45254;-76
2022/10/09 13:48:30;;;;;;;;;3.75;2.75;;;;;37.69;16.55;101168.53;5054320;28;45669;-75
2022/10/09 13:50:58;;;;;;;;;2.00;2.00;;;;;37.84;16.79;101160.56;5054414;28;45208;-76
2022/10/09 13:53:23;;;;;;;;;2.00;1.50;;;;;37.93;15.88;101163.88;5054195;28;45405;-76
2022/10/09 13:55:51;;;;;;;;;4.00;1.25;;;;;37.87;16.33;101167.59;5054436;28;45284;-77
2022/10/09 13:58:16;;;;;;;;;2.25;2.25;;;;;37.90;16.49;101164.34;5054469;28;45403;-76
2022/10/09 14:00:44;;;;;;;;;4.00;2.25;;;;;37.80;16.91;101136.06;5054334;28;45621;-78
2022/10/09 14:03:09;;;;;;;;;5.00;3.75;;;;;38.09;16.09;101156.75;5054138;28;45567;-76
2022/10/09 14:05:34;;;;;;;;;2.00;2.00;;;;;38.21;16.37;101143.59;5054188;28;45260;-75
2022/10/09 14:08:00;;;;;;;;;2.00;2.00;;;;;38.16;15.89;101151.88;5054523;28;45413;-76
2022/10/09 14:10:25;;;;;;;;;2.00;2.00;;;;;37.94;15.91;101128.34;5054413;28;45189;-76
2022/10/09 14:12:51;;;;;;;;;3.25;1.75;;;;;37.93;16.31;101133.06;5054512;28;45290;-75
2022/10/09 14:15:16;;;;;;;;;3.00;3.00;;;;;38.03;16.61;101135.25;5054384;28;45280;-76
2022/10/09 14:17:42;;;;;;;;;4.00;3.00;;;;;38.01;15.95;101115.91;5054155;28;45397;-75
2022/10/09 14:20:07;;;;;;;;;3.00;3.00;;;;;38.05;16.03;101116.28;5053868;28;45615;-75
2022/10/09 14:22:33;;;;;;;;;1.75;1.75;;;;;38.03;16.57;101107.25;5053702;28;46243;-77
2022/10/09 14:24:58;;;;;;;;;1.50;1.50;;;;;38.10;16.13;101125.69;5053863;28;45411;-76
2022/10/09 14:27:24;;;;;;;;;4.00;2.75;;;;;37.85;16.38;101095.09;5053946;28;45247;-76
2022/10/09 14:29:49;;;;;;;;;2.50;2.00;;;;;37.84;16.63;101118.56;5053764;28;45323;-76
2022/10/09 14:32:14;;;;;;;;;4.75;1.00;;;;;37.64;16.98;101118.03;5053153;28;45460;-75
2022/10/09 14:34:40;;;;;;;;;2.00;2.00;;;;;37.56;17.14;101107.16;5053528;28;45252;-75
2022/10/09 14:37:05;;;;;;;;;4.00;2.50;;;;;37.45;17.28;101092.03;5053628;28;45430;-76
2022/10/09 14:39:30;;;;;;;;;4.50;3.00;;;;;37.37;17.37;101100.78;5053635;28;45310;-76
2022/10/09 14:41:56;;;;;;;;;3.00;3.00;;;;;37.23;17.42;101084.44;5053446;28;46059;-77
2022/10/09 14:44:21;;;;;;;;;3.00;2.00;;;;;37.23;17.37;101106.81;5053775;28;45385;-76
2022/10/09 14:46:46;;;;;;;;;3.00;3.00;;;;;36.95;17.34;101076.59;5053632;28;45412;-76
2022/10/09 14:49:12;;;;;;;;;2.50;2.00;;;;;36.97;17.72;101094.88;5052172;28;46186;-75
2022/10/09 14:51:40;;;;;;;;;3.75;2.75;;;;;36.78;17.68;101095.09;5053189;28;46133;-76
2022/10/09 14:54:06;;;;;;;;;3.25;3.00;;;;;36.59;17.73;101080.25;5053762;28;45358;-76
2022/10/09 14:56:32;;;;;;;;;1.75;1.50;;;;;36.51;18.10;101091.75;5053632;28;45544;-77
2022/10/09 14:59:01;;;;;;;;;5.75;3.00;;;;;36.34;18.34;101078.38;5053714;28;45366;-75
2022/10/09 15:01:28;;;;;;;;;4.25;4.25;;;;;36.25;18.60;101088.16;5052007;28;46027;-74
2022/10/09 15:03:54;;;;;;;;;3.75;3.75;;;;;36.09;18.48;101065.53;5053628;28;45374;-75
2022/10/09 15:06:22;;;;;;;;;7.00;5.00;;;;;36.10;18.92;101070.88;5053469;28;45160;-76
2022/10/09 15:08:49;;;;;;;;;2.50;2.50;;;;;35.98;18.13;101058.78;5053731;28;46060;-75
2022/10/09 15:11:15;;;;;;;;;3.00;3.00;;;;;35.90;18.53;101068.28;5053363;28;45520;-76
2022/10/09 15:13:40;;;;;;;;;2.25;2.25;;;;;35.75;18.44;101061.34;5053216;28;45480;-75
2022/10/09 15:16:09;;;;;;;;;2.00;2.00;;;;;35.68;18.96;101064.16;5055990;28;45349;-77
2022/10/09 15:18:35;;;;;;;;;2.00;2.00;;;;;35.22;18.93;101039.38;5056623;28;45169;-75
2022/10/09 15:21:00;;;;;;;;;2.00;2.00;;;;;35.09;19.27;101061.75;5056539;28;46021;-75
2022/10/09 15:23:26;;;;;;;;;4.00;4.00;;;;;34.77;19.87;101067.28;5056939;28;45314;-76
2022/10/09 15:25:54;;;;;;;;;4.25;3.75;;;;;34.52;20.52;101060.72;5056617;28;45330;-76
2022/10/09 15:28:20;;;;;;;;;3.00;2.00;;;;;34.47;20.11;101061.38;5056644;28;45721;-76
2022/10/09 15:30:49;;;;;;;;;5.50;4.00;;;;;34.24;20.79;101057.38;5056575;28;45909;-74
2022/10/09 15:33:15;;;;;;;;;2.75;2.75;;;;;34.05;20.85;101068.28;5056195;28;45282;-76
2022/10/09 15:35:41;;;;;;;;;2.75;2.75;;;;;33.62;20.80;101050.28;5056729;28;45306;-76
2022/10/09 15:38:11;;;;;;;;;4.75;2.75;;;;;33.43;21.34;101052.84;5056673;28;45690;-76
2022/10/09 15:40:48;;;;;;;;;4.25;4.00;;;;;33.11;21.49;101053.63;5056311;28;46117;-76
2022/10/09 15:43:16;;;;;;;;;2.75;2.75;;;;;32.73;21.99;101056.09;5056434;28;45259;-76
2022/10/09 15:45:41;;;;;;;;;5.75;4.25;;;;;32.14;23.00;101047.38;5056841;28;45287;-76
2022/10/09 15:48:14;;;;;;;;;3.25;3.25;;;;;31.70;23.19;101043.00;5055946;28;45340;-75
2022/10/09 15:50:40;;;;;;;;;3.00;3.00;;;;;31.09;23.60;101025.13;5056446;28;46591;-77
2022/10/09 15:53:11;;;;;;;;;1.75;1.75;;;;;30.79;25.16;101038.19;5056100;28;45483;-77
2022/10/09 15:55:37;;;;;;;;;4.25;4.25;;;;;30.46;24.50;101038.56;5056770;28;45576;-76
2022/10/09 15:58:03;;;;;;;;;3.25;3.25;;;;;30.05;25.43;101040.97;5056507;28;45648;-77
2022/10/09 16:00:28;;;;;;;;;3.00;3.00;;;;;29.69;25.67;101035.28;5056807;28;46151;-76
2022/10/09 16:02:53;;;;;;;;;4.00;2.75;;;;;29.39;26.01;101024.34;5056222;28;45327;-77
2022/10/09 16:05:18;;;;;;;;;3.25;3.25;;;;;29.25;26.46;101031.50;5056479;28;45455;-75
2022/10/09 16:07:44;;;;;;;;;5.50;3.00;;;;;29.11;26.63;101033.16;5054660;28;47415;-76